Time;durP1;ratioP1;P1;durP2;ratioP2;P2;SDS_P1;SDS_P2;PMS_P1;PMS_P2;Temp;Humidity;BMP_temperature;BMP_pressure;BME280_temperature;BME280_humidity;BME280_pressure;Samples;Min_cycle;Max_cycle;Signal;HPM_P1;HPM_P2
2021/03/12 00:01:27;;;;;;;24.10;13.53;;;;;;;-4.97;64.82;100926.43;1776683;80;21478;-72
2021/03/12 00:03:54;;;;;;;19.85;11.68;;;;;;;-5.00;64.83;100922.59;1764718;80;21885;-72
2021/03/12 00:06:22;;;;;;;19.65;11.97;;;;;;;-5.01;64.95;100915.30;1767719;80;21204;-72
2021/03/12 00:08:49;;;;;;;20.68;11.53;;;;;;;-5.03;64.93;100914.44;1776385;80;21633;-72
2021/03/12 00:11:20;;;;;;;20.55;11.45;;;;;;;-5.03;64.94;100912.30;1769884;80;22625;-71
2021/03/12 00:13:47;;;;;;;19.05;11.97;;;;;;;-5.06;64.98;100900.30;1761066;80;21151;-72
2021/03/12 00:16:15;;;;;;;19.35;11.12;;;;;;;-5.09;64.97;100895.19;1728776;82;22039;-72
2021/03/12 00:18:45;;;;;;;18.00;11.78;;;;;;;-5.10;64.93;100892.19;1713380;83;21221;-72
2021/03/12 00:21:14;;;;;;;16.05;9.90;;;;;;;-5.12;64.99;100887.45;1743463;82;21197;-72
2021/03/12 00:23:43;;;;;;;21.10;10.93;;;;;;;-5.13;64.98;100882.32;1710661;82;21351;-72
2021/03/12 00:26:11;;;;;;;17.77;11.08;;;;;;;-5.15;65.05;100882.77;1679675;83;21194;-72
2021/03/12 00:28:39;;;;;;;17.57;10.50;;;;;;;-5.16;65.04;100875.91;1750910;80;21985;-72
2021/03/12 00:31:07;;;;;;;17.67;10.32;;;;;;;-5.19;64.97;100863.49;1776592;80;21054;-72
2021/03/12 00:33:35;;;;;;;22.62;10.30;;;;;;;-5.20;65.04;100855.34;1736540;82;21136;-72
2021/03/12 00:36:06;;;;;;;16.23;10.68;;;;;;;-5.22;65.14;100857.48;1766543;80;21157;-72
2021/03/12 00:38:34;;;;;;;16.90;9.98;;;;;;;-5.23;65.15;100862.22;1729842;82;21669;-72
2021/03/12 00:41:04;;;;;;;19.65;11.45;;;;;;;-5.26;65.19;100855.81;1749619;80;21581;-72
2021/03/12 00:43:35;;;;;;;19.87;11.30;;;;;;;-5.27;65.12;100860.55;1728733;83;21139;-72
2021/03/12 00:46:08;;;;;;;19.67;10.68;;;;;;;-5.27;65.22;100856.68;1781371;80;21191;-72
2021/03/12 00:48:37;;;;;;;14.83;9.45;;;;;;;-5.30;65.23;100858.86;1758541;81;21071;-72
2021/03/12 00:51:06;;;;;;;18.07;9.83;;;;;;;-5.33;65.24;100854.99;1729584;82;21572;-72
2021/03/12 00:53:38;;;;;;;14.78;8.60;;;;;;;-5.36;65.25;100849.02;1775381;80;22105;-72
2021/03/12 00:56:06;;;;;;;14.85;9.80;;;;;;;-5.39;65.33;100851.19;1743859;82;21094;-72
2021/03/12 00:58:35;;;;;;;17.98;9.18;;;;;;;-5.42;65.35;100843.47;1773276;80;21165;-72
2021/03/12 01:01:03;;;;;;;16.93;9.45;;;;;;;-5.44;65.33;100834.05;1728583;83;21133;-72
2021/03/12 01:03:34;;;;;;;17.52;9.08;;;;;;;-5.47;65.22;100842.66;1767550;80;36234;-72
2021/03/12 01:06:04;;;;;;;23.70;10.70;;;;;;;-5.50;65.20;100834.53;1733198;82;21612;-72
2021/03/12 01:08:35;;;;;;;17.12;8.93;;;;;;;-5.52;65.08;100831.52;1751505;80;21176;-72
2021/03/12 01:11:03;;;;;;;18.70;10.45;;;;;;;-5.54;65.08;100837.13;1758653;80;21121;-72
2021/03/12 01:13:33;;;;;;;15.85;8.50;;;;;;;-5.58;64.98;100828.58;1739487;81;21169;-73
2021/03/12 01:16:00;;;;;;;14.33;8.18;;;;;;;-5.59;64.92;100831.16;1764447;80;21478;-72
2021/03/12 01:18:30;;;;;;;18.35;10.18;;;;;;;-5.61;64.91;100830.30;1777197;80;22003;-72
2021/03/12 01:20:59;;;;;;;17.07;9.00;;;;;;;-5.62;64.70;100833.73;1786119;80;21169;-72
2021/03/12 01:23:27;;;;;;;17.20;9.95;;;;;;;-5.62;64.66;100831.16;1755504;80;21074;-73
2021/03/12 01:25:56;;;;;;;20.62;9.75;;;;;;;-5.63;64.67;100829.45;1762225;80;21132;-72
2021/03/12 01:28:25;;;;;;;19.85;9.80;;;;;;;-5.65;64.60;100824.33;1765011;80;21159;-73
2021/03/12 01:30:54;;;;;;;15.95;9.10;;;;;;;-5.65;64.62;100819.61;1774362;80;22063;-72
2021/03/12 01:33:35;;;;;;;18.98;9.60;;;;;;;-5.66;64.58;100823.05;1768305;80;21204;-73
2021/03/12 01:36:05;;;;;;;16.55;9.38;;;;;;;-5.68;64.50;100822.21;1775461;80;20975;-72
2021/03/12 01:38:34;;;;;;;18.23;9.13;;;;;;;-5.70;64.52;100817.48;1776255;80;21193;-73
2021/03/12 01:41:03;;;;;;;15.20;9.25;;;;;;;-5.72;64.47;100823.93;1751751;80;21102;-72
2021/03/12 01:43:32;;;;;;;20.95;10.15;;;;;;;-5.73;64.47;100817.52;1777368;80;22066;-74
2021/03/12 01:46:01;;;;;;;15.65;9.48;;;;;;;-5.76;64.50;100820.53;1778791;80;21874;-72
2021/03/12 01:48:30;;;;;;;18.23;9.58;;;;;;;-5.78;64.59;100821.41;1777638;80;21109;-72
2021/03/12 01:51:00;;;;;;;15.90;8.25;;;;;;;-5.82;64.63;100830.84;1765718;80;21099;-73
2021/03/12 01:53:28;;;;;;;20.97;11.08;;;;;;;-5.84;64.75;100832.58;1751198;81;21070;-72
2021/03/12 01:55:57;;;;;;;20.65;11.25;;;;;;;-5.85;64.75;100825.72;1762301;80;22077;-72
2021/03/12 01:58:27;;;;;;;16.57;9.43;;;;;;;-5.84;64.81;100827.86;1769537;80;21175;-72
2021/03/12 02:00:56;;;;;;;16.20;9.23;;;;;;;-5.85;64.70;100831.30;1775964;80;21095;-72
2021/03/12 02:03:29;;;;;;;14.35;8.85;;;;;;;-5.84;64.87;100832.58;1768018;80;21173;-72
2021/03/12 02:06:02;;;;;;;17.80;9.43;;;;;;;-5.84;64.82;100830.00;1777302;80;21653;-72
2021/03/12 02:08:30;;;;;;;14.28;8.95;;;;;;;-5.85;64.71;100833.44;1757096;80;22815;-73
2021/03/12 02:11:00;;;;;;;17.48;9.15;;;;;;;-5.84;64.74;100827.43;1781784;80;21254;-72
2021/03/12 02:13:57;;;;;;;18.25;9.23;;;;;;;-5.82;64.75;100823.56;1829316;77;21047;-72
2021/03/12 02:16:34;;;;;;;15.53;9.00;;;;;;;-5.83;64.39;100806.42;1828248;77;21058;-72
2021/03/12 02:19:20;;;;;;;17.57;9.40;;;;;;;-5.86;64.47;100803.44;1805327;77;21088;-72
2021/03/12 02:21:51;;;;;;;15.98;9.18;;;;;;;-5.87;64.41;100803.02;1832041;77;22118;-72
2021/03/12 02:24:33;;;;;;;14.23;7.53;;;;;;;-5.88;64.10;100792.75;1828333;77;21054;-72
2021/03/12 02:27:13;;;;;;;19.50;11.60;;;;;;;-5.91;63.98;100794.06;1843778;77;21451;-73
2021/03/12 02:29:47;;;;;;;17.35;10.00;;;;;;;-5.93;63.68;100782.50;1819182;77;21128;-73
2021/03/12 02:32:17;;;;;;;20.07;10.40;;;;;;;-5.96;63.64;100765.81;1839603;77;21106;-72
2021/03/12 02:34:48;;;;;;;17.40;8.37;;;;;;;-5.95;63.69;100759.80;1823781;77;22048;-72
2021/03/12 02:37:18;;;;;;;17.10;9.80;;;;;;;-5.95;63.50;100763.66;1824040;77;21124;-72
2021/03/12 02:39:52;;;;;;;13.85;8.13;;;;;;;-5.97;63.39;100758.96;1846179;77;21122;-72
2021/03/12 02:42:20;;;;;;;12.78;7.80;;;;;;;-5.97;63.16;100767.97;1788498;77;21062;-74
2021/03/12 02:44:50;;;;;;;13.35;7.30;;;;;;;-5.98;62.94;100775.26;1829419;77;21050;-72
2021/03/12 02:47:30;;;;;;;13.15;8.20;;;;;;;-5.98;62.87;100778.23;1801628;77;21478;-72
2021/03/12 02:50:00;;;;;;;14.63;7.75;;;;;;;-5.98;62.74;100780.80;1825084;77;21069;-72
2021/03/12 02:52:27;;;;;;;15.23;8.15;;;;;;;-5.98;62.79;100774.38;1822045;77;21104;-72
2021/03/12 02:54:56;;;;;;;16.62;9.43;;;;;;;-5.99;62.39;100795.38;1787744;77;21144;-72
2021/03/12 02:57:25;;;;;;;14.65;8.70;;;;;;;-6.00;62.39;100802.67;1780233;77;21512;-72
2021/03/12 02:59:55;;;;;;;15.38;8.50;;;;;;;-5.99;62.46;100815.10;1830240;77;22023;-72
2021/03/12 03:02:41;;;;;;;14.27;10.00;;;;;;;-5.93;62.08;100808.66;1861859;74;27932;-72
2021/03/12 03:05:28;;;;;;;14.78;8.20;;;;;;;-5.94;62.02;100812.09;1835837;77;21376;-72
2021/03/12 03:07:57;;;;;;;17.10;9.07;;;;;;;-5.93;61.91;100802.22;1835357;77;22059;-72
2021/03/12 03:10:25;;;;;;;17.00;7.85;;;;;;;-5.97;61.81;100796.69;1828487;77;21115;-74
2021/03/12 03:12:53;;;;;;;17.45;9.30;;;;;;;-6.00;61.87;100791.53;1835613;77;21490;-72
2021/03/12 03:15:23;;;;;;;12.70;6.70;;;;;;;-6.03;61.89;100797.98;1792544;77;21126;-72
2021/03/12 03:17:51;;;;;;;12.88;7.40;;;;;;;-6.07;61.94;100801.02;1833088;77;21149;-72
2021/03/12 03:20:22;;;;;;;15.05;8.25;;;;;;;-6.10;61.92;100797.16;1832936;77;21873;-72
2021/03/12 03:22:50;;;;;;;16.55;8.03;;;;;;;-6.13;62.01;100781.75;1790159;79;21071;-72
2021/03/12 03:25:18;;;;;;;16.17;8.45;;;;;;;-6.17;62.05;100771.92;1823456;77;21613;-74
2021/03/12 03:27:46;;;;;;;15.85;8.25;;;;;;;-6.24;61.91;100753.53;1824334;77;21904;-72
2021/03/12 03:30:15;;;;;;;17.57;9.93;;;;;;;-6.24;61.91;100753.53;1827964;77;21143;-74
2021/03/12 03:32:46;;;;;;;18.07;8.93;;;;;;;-6.25;62.20;100765.11;1830704;77;22117;-72
2021/03/12 03:35:14;;;;;;;16.87;9.33;;;;;;;-6.25;62.26;100774.11;1824928;77;21598;-71
2021/03/12 03:37:42;;;;;;;21.40;9.65;;;;;;;-6.25;62.06;100747.97;1821109;77;21362;-72
2021/03/12 03:40:11;;;;;;;17.65;9.20;;;;;;;-6.24;62.13;100727.82;1843418;77;21036;-72
2021/03/12 03:42:42;;;;;;;15.78;9.05;;;;;;;-6.25;62.01;100718.41;1819841;77;21150;-72
2021/03/12 03:45:11;;;;;;;15.60;8.55;;;;;;;-6.22;61.83;100720.09;1840979;77;22047;-72
2021/03/12 03:47:41;;;;;;;19.25;10.05;;;;;;;-6.23;61.88;100717.96;1829598;77;21139;-72
2021/03/12 03:50:11;;;;;;;16.10;9.43;;;;;;;-6.23;61.59;100717.11;1839991;77;21056;-72
2021/03/12 03:52:39;;;;;;;16.15;9.48;;;;;;;-6.26;61.38;100708.14;1840147;77;21207;-72
2021/03/12 03:55:10;;;;;;;17.60;9.35;;;;;;;-6.28;60.96;100705.98;1833481;77;21032;-72
2021/03/12 03:57:38;;;;;;;15.50;8.83;;;;;;;-6.28;61.04;100690.56;1786775;77;22150;-72
2021/03/12 04:00:07;;;;;;;17.00;9.70;;;;;;;-6.32;60.53;100683.31;1812207;77;21426;-72
2021/03/12 04:02:38;;;;;;;13.38;8.10;;;;;;;-6.32;60.53;100676.88;1836947;77;21106;-72
2021/03/12 04:05:08;;;;;;;15.23;9.05;;;;;;;-6.32;60.68;100676.03;1816375;77;21158;-72
2021/03/12 04:07:38;;;;;;;20.57;9.55;;;;;;;-6.33;60.26;100680.75;1841978;77;21070;-71
2021/03/12 04:10:08;;;;;;;15.43;9.73;;;;;;;-6.37;60.07;100673.07;1832998;77;21887;-73
2021/03/12 04:12:42;;;;;;;20.50;10.38;;;;;;;-6.36;60.00;100677.34;1810318;78;21153;-72
2021/03/12 04:15:11;;;;;;;16.32;8.73;;;;;;;-6.35;59.98;100685.47;1813901;77;21060;-72
2021/03/12 04:17:40;;;;;;;17.60;10.08;;;;;;;-6.36;59.84;100681.20;1842437;77;21076;-72
2021/03/12 04:20:09;;;;;;;19.07;9.58;;;;;;;-6.38;59.64;100680.77;1809342;77;21111;-73
2021/03/12 04:22:37;;;;;;;20.88;10.35;;;;;;;-6.40;59.68;100685.06;1816977;77;22166;-72
2021/03/12 04:25:07;;;;;;;15.60;8.95;;;;;;;-6.40;59.67;100687.20;1830772;77;21115;-72
2021/03/12 04:27:35;;;;;;;19.12;9.45;;;;;;;-6.40;59.46;100687.63;1798775;77;21150;-72
2021/03/12 04:30:05;;;;;;;17.57;9.43;;;;;;;-6.40;59.14;100704.34;1818589;77;21044;-72
2021/03/12 04:32:33;;;;;;;19.00;10.68;;;;;;;-6.44;59.09;100696.23;1793924;77;21451;-72
2021/03/12 04:35:01;;;;;;;20.43;10.82;;;;;;;-6.43;58.93;100693.65;1833943;77;21868;-72
2021/03/12 04:37:29;;;;;;;18.87;10.10;;;;;;;-6.43;58.76;100696.22;1831434;77;21675;-72
2021/03/12 04:39:56;;;;;;;15.98;9.00;;;;;;;-6.43;58.69;100692.36;1824300;77;21101;-73
2021/03/12 04:42:24;;;;;;;15.80;8.60;;;;;;;-6.43;58.84;100697.94;1811464;77;21554;-72
2021/03/12 04:44:54;;;;;;;16.23;9.15;;;;;;;-6.42;58.89;100677.37;1839279;77;21170;-72
2021/03/12 04:47:21;;;;;;;21.05;8.80;;;;;;;-6.42;58.83;100684.22;1765624;77;22046;-72
2021/03/12 04:49:51;;;;;;;18.40;9.43;;;;;;;-6.43;58.54;100687.22;1806465;78;21063;-72
2021/03/12 04:52:18;;;;;;;17.95;8.48;;;;;;;-6.45;58.29;100663.26;1791026;77;21343;-72
2021/03/12 04:54:48;;;;;;;20.10;11.25;;;;;;;-6.47;58.38;100670.09;1831551;77;21068;-71
2021/03/12 04:57:17;;;;;;;19.77;10.05;;;;;;;-6.48;58.32;100660.69;1811786;77;21099;-71
2021/03/12 04:59:46;;;;;;;21.80;10.20;;;;;;;-6.46;58.29;100662.84;1833214;76;22097;-72
2021/03/12 05:02:14;;;;;;;21.93;11.60;;;;;;;-6.44;58.48;100666.68;1847953;77;21150;-72
2021/03/12 05:04:43;;;;;;;22.20;10.85;;;;;;;-6.43;58.16;100678.66;1767050;80;21098;-72
2021/03/12 05:07:11;;;;;;;22.90;11.40;;;;;;;-6.43;57.50;100672.23;1756592;80;21073;-73
2021/03/12 05:09:49;;;;;;;25.93;11.57;;;;;;;-6.40;57.78;100659.36;1860798;75;23889;-72
2021/03/12 05:12:18;;;;;;;27.35;13.32;;;;;;;-6.44;57.77;100660.26;1849441;77;21058;-72
2021/03/12 05:14:46;;;;;;;28.38;12.47;;;;;;;-6.45;57.57;100664.55;1833266;77;22024;-73
2021/03/12 05:17:15;;;;;;;25.20;12.45;;;;;;;-6.44;57.80;100676.53;1839512;77;21185;-72
2021/03/12 05:19:43;;;;;;;23.30;11.43;;;;;;;-6.41;57.83;100684.64;1836575;77;21119;-70
2021/03/12 05:22:11;;;;;;;21.00;10.25;;;;;;;-6.40;57.60;100674.78;1851636;77;21170;-71
2021/03/12 05:24:39;;;;;;;20.97;10.80;;;;;;;-6.42;57.47;100682.50;1841847;77;21157;-75
2021/03/12 05:27:08;;;;;;;22.60;11.53;;;;;;;-6.43;57.32;100691.52;1856026;77;21466;-72
2021/03/12 05:29:38;;;;;;;17.35;9.50;;;;;;;-6.41;57.44;100685.92;1788946;80;21074;-72
2021/03/12 05:32:06;;;;;;;17.35;9.05;;;;;;;-6.39;57.38;100687.62;1768345;80;21496;-73
2021/03/12 05:34:36;;;;;;;15.45;8.33;;;;;;;-6.36;57.31;100675.20;1798021;78;21097;-72
2021/03/12 05:37:04;;;;;;;20.90;10.10;;;;;;;-6.35;57.31;100663.63;1819256;78;21164;-71
2021/03/12 05:39:32;;;;;;;20.88;9.43;;;;;;;-6.35;57.15;100660.20;1775206;79;22098;-69
2021/03/12 05:42:00;;;;;;;20.45;10.18;;;;;;;-6.34;57.23;100654.20;1807763;78;21059;-70
2021/03/12 05:44:30;;;;;;;14.93;7.90;;;;;;;-6.32;57.22;100655.03;1792153;78;21063;-69
2021/03/12 05:46:58;;;;;;;20.17;8.30;;;;;;;-6.27;57.23;100669.12;1800887;79;21066;-70
2021/03/12 05:49:27;;;;;;;20.57;8.80;;;;;;;-6.25;57.34;100663.14;1754765;79;21078;-76
2021/03/12 05:51:55;;;;;;;17.00;9.20;;;;;;;-6.20;57.17;100671.66;1791859;79;22071;-69
2021/03/12 05:54:22;;;;;;;15.10;8.30;;;;;;;-6.16;56.90;100664.36;1787770;79;21136;-70
2021/03/12 05:56:52;;;;;;;14.65;8.10;;;;;;;-6.13;57.12;100669.91;1803238;79;21410;-70
2021/03/12 05:59:20;;;;;;;19.80;8.08;;;;;;;-6.11;56.35;100678.03;1793278;78;21427;-70
2021/03/12 06:01:50;;;;;;;21.10;9.13;;;;;;;-6.11;56.43;100679.75;1794643;79;21057;-71
2021/03/12 06:04:17;;;;;;;14.23;7.90;;;;;;;-6.09;56.47;100694.73;1805867;79;21877;-70
2021/03/12 06:06:45;;;;;;;12.90;6.90;;;;;;;-6.06;56.66;100697.30;1809616;78;21085;-70
2021/03/12 06:09:14;;;;;;;15.23;8.33;;;;;;;-6.00;56.99;100694.67;1790091;80;21149;-71
2021/03/12 06:11:41;;;;;;;15.75;8.50;;;;;;;-5.94;56.55;100715.21;1809575;78;21089;-71
2021/03/12 06:14:09;;;;;;;14.93;7.35;;;;;;;-5.90;56.52;100700.60;1801722;79;20914;-71
2021/03/12 06:16:55;;;;;;;19.60;8.00;;;;;;;-5.88;56.10;100707.43;1790270;78;21054;-71
2021/03/12 06:19:25;;;;;;;18.40;8.78;;;;;;;-5.90;55.67;100705.28;1788480;79;21078;-71
2021/03/12 06:22:07;;;;;;;25.27;9.30;;;;;;;-5.86;55.45;100713.41;1883296;76;24323;-70
2021/03/12 06:24:38;;;;;;;17.60;9.50;;;;;;;-5.90;55.61;100710.42;1849724;77;21161;-71
2021/03/12 06:27:28;;;;;;;21.00;9.38;;;;;;;-5.87;55.82;100688.56;1839210;77;22381;-71
2021/03/12 06:29:59;;;;;;;24.07;10.78;;;;;;;-5.80;55.79;100683.77;1829917;77;21109;-70
2021/03/12 06:32:53;;;;;;;20.33;9.17;;;;;;;-5.71;54.91;100685.84;1872371;76;23477;-71
2021/03/12 06:35:40;;;;;;;19.65;9.23;;;;;;;-5.75;54.63;100692.75;1808450;79;21067;-71
2021/03/12 06:38:30;;;;;;;15.57;7.20;;;;;;;-5.68;53.90;100696.14;1851966;76;24326;-71
2021/03/12 06:41:05;;;;;;;18.02;8.00;;;;;;;-5.76;54.04;100695.75;1806297;79;21111;-70
2021/03/12 06:43:37;;;;;;;15.03;7.50;;;;;;;-5.73;53.62;100698.73;1779226;79;21873;-71
2021/03/12 06:46:05;;;;;;;18.25;8.28;;;;;;;-5.73;53.08;100701.73;1781199;78;21135;-70
2021/03/12 06:48:37;;;;;;;23.70;10.98;;;;;;;-5.73;52.87;100703.88;1786812;79;21110;-70
2021/03/12 06:51:23;;;;;;;15.18;8.08;;;;;;;-5.71;53.02;100692.28;1801641;79;22148;-70
2021/03/12 06:53:51;;;;;;;13.40;7.20;;;;;;;-5.63;52.47;100707.23;1787317;79;21194;-71
2021/03/12 06:56:29;;;;;;;18.37;8.10;;;;;;;-5.57;51.92;100708.48;1737268;80;21896;-71
2021/03/12 06:59:14;;;;;;;14.53;7.30;;;;;;;-5.52;51.23;100701.55;1886865;75;25266;-71
2021/03/12 07:01:58;;;;;;;21.77;9.45;;;;;;;-5.57;50.94;100706.76;1854362;77;26526;-70
2021/03/12 07:04:33;;;;;;;25.65;12.98;;;;;;;-5.53;50.54;100686.98;1828212;76;38144;-71
2021/03/12 07:07:05;;;;;;;19.07;9.60;;;;;;;-5.51;50.80;100676.23;1793714;79;21115;-70
2021/03/12 07:09:34;;;;;;;16.50;7.53;;;;;;;-5.44;50.62;100659.88;1750353;80;22070;-71
2021/03/12 07:12:08;;;;;;;16.00;6.83;;;;;;;-5.42;50.11;100654.27;1750600;81;21156;-70
2021/03/12 07:14:37;;;;;;;12.85;6.60;;;;;;;-5.39;49.63;100665.00;1740877;82;21548;-70
2021/03/12 07:17:23;;;;;;;15.10;7.90;;;;;;;-5.35;49.34;100661.08;1834516;76;38260;-71
2021/03/12 07:19:53;;;;;;;19.85;7.40;;;;;;;-5.36;49.40;100654.23;1809339;78;21052;-71
2021/03/12 07:22:21;;;;;;;16.32;7.40;;;;;;;-5.30;49.18;100655.90;1805090;78;21881;-70
2021/03/12 07:24:51;;;;;;;13.38;6.60;;;;;;;-5.29;48.91;100652.02;1819998;78;21043;-70
2021/03/12 07:27:21;;;;;;;17.37;6.55;;;;;;;-5.28;48.76;100652.43;1814161;78;21056;-72
2021/03/12 07:30:09;;;;;;;17.87;7.77;;;;;;;-5.20;48.61;100644.63;1881858;74;22670;-71
2021/03/12 07:32:39;;;;;;;16.85;6.60;;;;;;;-5.19;48.36;100646.33;1824759;77;21066;-71
2021/03/12 07:35:09;;;;;;;17.10;5.90;;;;;;;-5.15;48.04;100658.30;1840610;77;22075;-72
2021/03/12 07:37:50;;;;;;;18.92;7.95;;;;;;;-5.13;47.44;100651.84;1815067;79;21071;-71
2021/03/12 07:40:19;;;;;;;16.37;5.15;;;;;;;-5.12;47.27;100678.00;1844219;77;21041;-71
2021/03/12 07:42:47;;;;;;;20.25;8.03;;;;;;;-5.10;47.37;100684.02;1775521;80;21066;-71
2021/03/12 07:45:28;;;;;;;17.97;6.40;;;;;;;-5.01;47.19;100686.05;1873517;75;25271;-71
2021/03/12 07:48:12;;;;;;;16.87;7.10;;;;;;;-4.97;47.34;100677.84;1808566;78;21416;-71
2021/03/12 07:51:15;;;;;;;12.63;5.93;;;;;;;-4.83;47.15;100690.12;1889935;76;24292;-69
2021/03/12 07:53:51;;;;;;;14.30;7.25;;;;;;;-4.81;47.13;100694.84;1838341;77;21035;-69
2021/03/12 07:56:47;;;;;;;11.80;5.90;;;;;;;-4.82;46.49;100699.59;1826385;78;22048;-69
2021/03/12 07:59:19;;;;;;;12.20;6.03;;;;;;;-4.84;46.68;100696.59;1824855;78;22570;-69
2021/03/12 08:02:06;;;;;;;12.40;6.70;;;;;;;-4.75;46.92;100706.35;1872254;76;27846;-69
2021/03/12 08:04:36;;;;;;;17.05;8.45;;;;;;;-4.73;46.73;100681.85;1771033;80;21065;-69
2021/03/12 08:07:23;;;;;;;16.65;7.92;;;;;;;-4.65;47.15;100672.30;1772007;81;22978;-69
2021/03/12 08:09:53;;;;;;;9.05;4.72;;;;;;;-4.54;46.61;100681.19;1775305;80;21437;-70
2021/03/12 08:12:53;;;;;;;13.37;5.73;;;;;;;-4.50;46.31;100673.84;1889903;76;26128;-71
2021/03/12 08:15:27;;;;;;;12.95;6.42;;;;;;;-4.55;46.18;100671.75;1859349;77;21125;-70
2021/03/12 08:18:03;;;;;;;13.15;5.42;;;;;;;-4.55;46.53;100653.27;1860101;77;22300;-71
2021/03/12 08:20:41;;;;;;;11.65;5.15;;;;;;;-4.51;46.70;100662.69;1857970;77;21122;-69
2021/03/12 08:23:16;;;;;;;12.93;5.85;;;;;;;-4.41;47.24;100641.50;1840707;77;21066;-71
2021/03/12 08:25:47;;;;;;;10.82;5.53;;;;;;;-4.30;47.21;100627.16;1821112;77;21050;-70
2021/03/12 08:28:26;;;;;;;12.03;5.83;;;;;;;-4.20;47.14;100623.13;1789270;80;21141;-71
2021/03/12 08:31:17;;;;;;;13.73;6.70;;;;;;;-4.10;46.63;100613.08;1871141;76;27771;-71
2021/03/12 08:33:49;;;;;;;18.90;6.85;;;;;;;-4.07;46.67;100610.45;1746487;80;21514;-71
2021/03/12 08:36:25;;;;;;;15.25;6.67;;;;;;;-3.96;46.41;100602.97;1762153;81;21878;-71
2021/03/12 08:39:28;;;;;;;9.20;4.67;;;;;;;-3.87;46.12;100610.56;1773182;79;21079;-71
2021/03/12 08:42:18;;;;;;;12.10;6.30;;;;;;;-3.83;46.64;100598.89;1786346;79;21105;-70
2021/03/12 08:45:06;;;;;;;12.47;7.10;;;;;;;-3.70;46.53;100588.34;1806714;79;21122;-70
2021/03/12 08:48:12;;;;;;;8.63;4.97;;;;;;;-3.58;46.12;100582.52;1886013;76;28070;-70
2021/03/12 08:51:03;;;;;;;9.68;4.90;;;;;;;-3.60;46.20;100570.08;1771177;80;21038;-73
2021/03/12 08:53:40;;;;;;;11.57;5.85;;;;;;;-3.61;45.91;100581.29;1841291;77;23035;-70
2021/03/12 08:56:09;;;;;;;11.73;5.92;;;;;;;-3.60;46.12;100576.97;1795525;79;21066;-71
2021/03/12 08:58:47;;;;;;;10.57;5.37;;;;;;;-3.48;46.29;100560.80;1889448;76;28229;-72
2021/03/12 09:01:27;;;;;;;15.95;7.35;;;;;;;-3.38;46.33;100563.21;1767370;80;21117;-72
2021/03/12 09:04:02;;;;;;;13.32;6.65;;;;;;;-3.30;46.21;100558.31;1757624;81;22069;-73
2021/03/12 09:07:04;;;;;;;16.83;7.57;;;;;;;-3.15;46.46;100530.05;1872288;76;38161;-75
2021/03/12 09:09:38;;;;;;;17.02;6.60;;;;;;;-3.06;46.05;100519.96;1773391;80;21149;-73
2021/03/12 09:12:24;;;;;;;10.58;5.30;;;;;;;-2.92;45.93;100510.16;1823342;77;22588;-72
2021/03/12 09:14:53;;;;;;;13.62;5.08;;;;;;;-2.82;45.75;100510.36;1811183;77;21569;-72
2021/03/12 09:17:22;;;;;;;15.83;5.80;;;;;;;-2.77;45.61;100494.77;1809111;77;21082;-69
2021/03/12 09:19:53;;;;;;;18.42;6.55;;;;;;;-2.71;45.58;100477.80;1758590;81;21156;-68
2021/03/12 09:22:25;;;;;;;13.90;6.58;;;;;;;-2.64;45.69;100465.98;1796698;79;21549;-67
2021/03/12 09:24:55;;;;;;;11.78;5.72;;;;;;;-2.56;45.55;100480.48;1758501;81;22061;-68
2021/03/12 09:27:38;;;;;;;18.73;5.77;;;;;;;-2.47;45.04;100450.52;1823550;76;29543;-69
2021/03/12 09:30:14;;;;;;;14.75;5.78;;;;;;;-2.51;45.47;100442.00;1783190;80;21481;-69
2021/03/12 09:32:45;;;;;;;12.28;5.97;;;;;;;-2.49;45.32;100444.09;1789809;79;22105;-68
2021/03/12 09:35:17;;;;;;;12.78;6.83;;;;;;;-2.50;45.62;100439.81;1810691;77;21072;-69
2021/03/12 09:37:47;;;;;;;15.53;5.45;;;;;;;-2.48;46.05;100435.45;1807342;78;21508;-70
2021/03/12 09:40:41;;;;;;;12.20;5.37;;;;;;;-2.44;46.12;100422.83;1777111;80;22229;-68
2021/03/12 09:43:25;;;;;;;13.25;6.62;;;;;;;-2.37;46.09;100413.19;1891910;75;28293;-69
2021/03/12 09:46:01;;;;;;;15.30;7.40;;;;;;;-2.39;46.65;100409.80;1861551;77;21113;-68
2021/03/12 09:48:43;;;;;;;11.97;5.80;;;;;;;-2.28;46.40;100424.59;1863606;77;21457;-68
2021/03/12 09:51:16;;;;;;;12.82;5.17;;;;;;;-2.20;46.43;100414.05;1857518;77;21101;-67
2021/03/12 09:53:48;;;;;;;13.10;5.62;;;;;;;-2.19;46.49;100420.92;1811537;78;21046;-66
2021/03/12 09:56:21;;;;;;;15.40;7.12;;;;;;;-2.20;46.94;100403.25;1840478;78;21188;-67
2021/03/12 09:58:50;;;;;;;10.68;5.75;;;;;;;-2.11;47.15;100378.88;1840892;78;21153;-67
2021/03/12 10:01:37;;;;;;;13.25;5.78;;;;;;;-1.97;47.15;100387.53;1874715;76;27247;-70
2021/03/12 10:04:35;;;;;;;13.68;7.53;;;;;;;-2.00;46.89;100377.27;1816201;78;21042;-67
2021/03/12 10:07:08;;;;;;;18.00;7.67;;;;;;;-2.04;47.52;100357.08;1787876;79;22148;-68
2021/03/12 10:09:38;;;;;;;11.65;5.85;;;;;;;-1.99;47.53;100363.44;1833422;77;21148;-68
2021/03/12 10:12:25;;;;;;;15.68;5.97;;;;;;;-2.00;47.63;100360.45;1849555;77;21573;-68
2021/03/12 10:15:15;;;;;;;13.43;5.92;;;;;;;-2.03;48.07;100358.36;1848914;77;21544;-68
2021/03/12 10:17:53;;;;;;;19.15;7.97;;;;;;;-2.01;48.06;100347.96;1909895;74;28666;-69
2021/03/12 10:20:28;;;;;;;29.60;15.88;;;;;;;-2.05;48.37;100351.50;1849541;77;21043;-68
2021/03/12 10:22:59;;;;;;;64.27;34.98;;;;;;;-2.02;48.71;100348.86;1849874;77;22811;-70
2021/03/12 10:25:39;;;;;;;12.45;8.38;;;;;;;-2.00;48.92;100326.81;1849047;77;21640;-71
2021/03/12 10:28:18;;;;;;;12.68;7.30;;;;;;;-1.98;49.40;100344.43;1819040;77;21110;-67
2021/03/12 10:30:50;;;;;;;11.63;6.62;;;;;;;-1.96;49.36;100338.30;1849698;77;21150;-68
2021/03/12 10:33:20;;;;;;;15.35;7.78;;;;;;;-1.97;49.78;100332.73;1807600;78;21106;-67
2021/03/12 10:35:50;;;;;;;13.35;6.83;;;;;;;-1.96;49.81;100331.84;1805005;79;22047;-67
2021/03/12 10:38:24;;;;;;;14.25;5.85;;;;;;;-1.95;49.59;100352.94;1827098;77;21503;-67
2021/03/12 10:40:59;;;;;;;;;;;;;;;-2.00;49.73;100330.69;1819082;79;21046;-67
2021/03/12 10:43:29;;;;;;;12.93;6.30;;;;;;;-2.07;49.90;100335.19;1798704;78;20242;-67
2021/03/12 10:46:05;;;;;;;13.05;6.45;;;;;;;-2.16;49.86;100338.87;1756177;80;21134;-67
2021/03/12 10:48:41;;;;;;;13.88;6.15;;;;;;;-2.21;50.21;100334.28;1785232;79;21898;-68
2021/03/12 10:51:09;;;;;;;11.63;6.60;;;;;;;-2.22;50.63;100336.48;1816357;79;21137;-68
2021/03/12 10:53:55;;;;;;;11.95;5.87;;;;;;;-2.21;51.23;100329.56;1816318;79;21427;-68
2021/03/12 10:56:25;;;;;;;10.72;6.12;;;;;;;-2.18;51.12;100338.52;1790148;79;21060;-68
2021/03/12 10:58:54;;;;;;;16.00;6.55;;;;;;;-2.16;51.01;100349.67;1787496;79;21339;-67
2021/03/12 11:01:28;;;;;;;14.00;6.15;;;;;;;-2.19;51.01;100350.61;1815419;78;22114;-70
2021/03/12 11:03:58;;;;;;;11.63;6.00;;;;;;;-2.22;51.18;100355.00;1784690;79;21174;-70
2021/03/12 11:06:30;;;;;;;12.78;6.08;;;;;;;-2.23;51.25;100354.60;1795365;79;21130;-68
2021/03/12 11:08:58;;;;;;;17.90;7.60;;;;;;;-2.24;51.10;100344.70;1787465;79;21189;-68
2021/03/12 11:11:27;;;;;;;16.80;7.78;;;;;;;-2.28;51.23;100336.63;1810349;79;21574;-67
2021/03/12 11:13:56;;;;;;;13.15;6.60;;;;;;;-2.26;51.39;100348.23;1798863;79;23012;-68
2021/03/12 11:16:24;;;;;;;13.50;6.75;;;;;;;-2.26;51.67;100345.19;1814911;79;21086;-67
2021/03/12 11:18:53;;;;;;;14.38;5.87;;;;;;;-2.26;51.58;100337.43;1816127;78;21166;-68
2021/03/12 11:21:24;;;;;;;12.15;5.55;;;;;;;-2.28;51.29;100328.87;1800928;78;21352;-67
2021/03/12 11:23:53;;;;;;;14.78;7.45;;;;;;;-2.29;51.47;100327.18;1783173;80;21170;-73
2021/03/12 11:26:23;;;;;;;12.85;6.72;;;;;;;-2.30;51.57;100333.25;1797099;79;21956;-75
2021/03/12 11:28:51;;;;;;;16.90;6.78;;;;;;;-2.32;51.61;100330.70;1806694;79;21558;-72
2021/03/12 11:31:20;;;;;;;15.85;7.10;;;;;;;-2.33;51.69;100315.20;1814668;79;21622;-77
2021/03/12 11:33:48;;;;;;;13.98;7.75;;;;;;;-2.31;51.89;100314.73;1794642;79;21166;-74
2021/03/12 11:36:16;;;;;;;13.43;6.15;;;;;;;-2.29;51.95;100319.42;1800390;79;21150;-72
2021/03/12 11:38:44;;;;;;;13.70;6.22;;;;;;;-2.25;52.07;100305.49;1791156;79;22660;-72
2021/03/12 11:41:12;;;;;;;14.43;6.00;;;;;;;-2.25;51.55;100306.79;1815464;79;21503;-70
2021/03/12 11:43:40;;;;;;;11.45;5.85;;;;;;;-2.23;51.83;100300.27;1785803;79;21059;-71